METAR stanice u blizini

 

LYBE - Beograd / Surčin, Srbija
Ažurirano: 11/07/2020 21:00
Vedro
Vedro
 Pravac vetra IJI
Vetar: IJI 15 km/h
Temperatura: 26°C
Tačka rose: 15°C
Vlažnost: 51%
Pritisak: 1013 hPa
Pregled: Vedro
Vidljivost: greater than 10 km
2020/07/11 19:00 LYBE 111900Z 11008KT CAVOK 26/15 Q1013 BECMG 33020G35KT
LYBT - Beograd / Batajnica, Srbija
Ažurirano: 11/07/2020 21:00
Vedro
Vedro
 Pravac vetra I
Vetar: I 11 km/h
Temperatura: 26°C
Tačka rose: 14°C
Vlažnost: 48%
Pritisak: 1012 hPa
Pregled: Vedro
Vidljivost: greater than 10 km
2020/07/11 19:00 LYBT 111900Z 08006KT CAVOK 26/14 Q1012 BECMG 32020G35KT
LYVR - Vršac, Srbija
Ažurirano: 11/07/2020 21:00
Vedro
Vedro
 Pravac vetra JI
Vetar: JI 24 km/h
Temperatura: 27°C
Tačka rose: 12°C
Vlažnost: 39%
Pritisak: 1013 hPa
Pregled: Vedro
Vidljivost: greater than 10 km
2020/07/11 19:00 LYVR 111900Z AUTO 13013KT 100V160 CAVOK 27/12 Q1013
 
LYKV - Lađevci, Srbija
Ažurirano: 11/07/2020 21:00
Vedro
Vedro
 Pravac vetra calm
Vetar: Tišina
Temperatura: 25°C
Tačka rose: 19°C
Vlažnost: 69%
Pritisak: 1013 hPa
Pregled: Vedro
Vidljivost: greater than 10 km
2020/07/11 19:00 LYKV 111900Z 00000KT CAVOK 25/19 Q1013 NOSIG
LYNI - Niš, Srbija
Ažurirano: 11/07/2020 21:00
Vedro
Vedro
 Pravac vetra varies
Vetar: varies 4 km/h
Temperatura: 25°C
Tačka rose: 14°C
Vlažnost: 51%
Pritisak: 1013 hPa
Pregled: Vedro
Vidljivost: greater than 10 km
2020/07/11 19:00 LYNI 111900Z VRB02KT CAVOK 25/14 Q1013 NOSIG
BKPR - Priština, Srbija
Ažurirano: 11/07/2020 21:30
Vedro
Vedro
 Pravac vetra varies
Vetar: varies 6 km/h
Temperatura: 25°C
Tačka rose: 16°C
Vlažnost: 57%
Pritisak: 1015 hPa
Pregled: Vedro
Vidljivost: greater than 10 km
2020/07/11 19:30 BKPR 111930Z VRB03KT CAVOK 25/16 Q1015 NOSIG
 
LHPP - Pecs / Pogany, Hungary
Ažurirano: 11/07/2020 19:45
NOT Current
Vedro
Vedro
 Pravac vetra S
Vetar: S 28 km/h, Maks.: 54 km/h
Temperatura: 22°C
Tačka rose: 12°C
Vlažnost: 53%
Pritisak: 1015 hPa
Pregled: Vedro
Vidljivost: greater than 10 km
2020/07/11 17:45 LHPP 111745Z 35015G29KT CAVOK 22/12 Q1015
LHUD - Szeged, Hungary
Ažurirano: 04/07/2019 01:45
NOT Current
Vedro
Vedro
 Pravac vetra S
Vetar: S 7 km/h
Temperatura: 18°C
Tačka rose: 13°C
Vlažnost: 73%
Pritisak: 1019 hPa
Pregled: Vedro
Vidljivost: greater than 10 km
2019/07/03 23:45 LHUD 032345Z 35004KT CAVOK 18/13 Q1019
LRTR - Timisoara, Romania
Ažurirano: 11/07/2020 21:00
Vedro
Vedro
 Pravac vetra J
Vetar: J 6 km/h
Temperatura: 24°C
Tačka rose: 15°C
Vlažnost: 57%
Pritisak: 1013 hPa
Pregled: Vedro
Vidljivost: greater than 10 km
2020/07/11 19:00 LRTR 111900Z 18003KT CAVOK 24/15 Q1013 NOSIG
 
LRCV - Craiova, Romania
Ažurirano: 11/07/2020 21:00
Vedro
Vedro
 Pravac vetra ISI
Vetar: ISI 11 km/h
Temperatura: 22°C
Tačka rose: 12°C
Vlažnost: 53%
Pritisak: 1014 hPa
Pregled: Vedro
Vidljivost: greater than 10 km
2020/07/11 19:00 LRCV 111900Z 07006KT CAVOK 22/12 Q1014
LBSF - Sofia, Bulgaria
Ažurirano: 11/07/2020 21:30
Vedro
Vedro
 Pravac vetra I
Vetar: I 13 km/h
Temperatura: 21°C
Tačka rose: 11°C
Vlažnost: 53%
Pritisak: 1016 hPa
Pregled: Vedro
Vidljivost: greater than 10 km
2020/07/11 19:30 LBSF 111930Z 10007KT CAVOK 21/11 Q1016 NOSIG
LWSK - Skoplje, Makedonija
Ažurirano: 11/07/2020 21:30
Vedro
Vedro
 Pravac vetra SI
Vetar: SI 6 km/h
Temperatura: 28°C
Heat Index: 28°C
Tačka rose: 16°C
Vlažnost: 48%
Pritisak: 1013 hPa
Pregled: Vedro
Vidljivost: greater than 10 km
2020/07/11 19:30 LWSK 111930Z 05003KT CAVOK 28/16 Q1013 NOSIG
 
LYPG - Podgorica, Crna Gora
Ažurirano: 11/07/2020 21:00
Few Clouds
Few Clouds
 Pravac vetra JI
Vetar: JI 7 km/h
Temperatura: 29°C
Heat Index: 29°C
Tačka rose: 16°C
Vlažnost: 45%
Pritisak: 1012 hPa
Oblaci: Few Clouds
Vidljivost: 10 km
Cloud details: Few Clouds 1219 m
2020/07/11 19:00 LYPG 111900Z 14004KT 9999 FEW040 29/16 Q1012 NOSIG
LQSA - Sarajevo, Bosna i Hercegovina
Ažurirano: 11/07/2020 21:00
Mostly Cloudy
Mostly Cloudy
 Pravac vetra SZ
Vetar: SZ 9 km/h
Temperatura: 26°C
Tačka rose: 18°C
Vlažnost: 61%
Pritisak: 1015 hPa
Oblaci: Mostly Cloudy
Vidljivost: 10 km
Cloud details: Few Clouds 1219 m
Mostly Cloudy 1372 m
2020/07/11 19:00 LQSA 111900Z 31005KT 9999 FEW040TCU BKN045 26/18 Q1015
LDOS - Osijek, Hrvatksa
Ažurirano: 11/07/2020 21:30
Partly Cloudy
Partly Cloudy
 Pravac vetra SSZ
Vetar: SSZ 30 km/h
Temperatura: 21°C
Tačka rose: 11°C
Vlažnost: 53%
Pritisak: 1016 hPa
Oblaci: Partly Cloudy
Vidljivost: 10 km
Cloud details: Few Clouds 1006 m
Partly Cloudy 1219 m
2020/07/11 19:30 LDOS 111930Z 34016KT 9999 FEW033 SCT040 21/11 Q1016